AFR313 LSZH-EPGD
Flight info
| Callsign | AFR313 |
|---|---|
| Flight time | N/A |
| Altitude | 40000 |
| Route | DEGES Z1 ETAGO DCT TIKNI/N0476F410 DCT TAMEB DCT TOPDI DCT ALUKA DCT DOSAL DCT UNVOX L730 KOSEX |
| Aircraft | B772/H-SDE2E3FGHIJ5LORVWXY/LB1D1 |
Departure
| Time | 2026-04-26 09:30 |
|---|---|
| Airport | Zürich Airport (LSZH) |
Arrival
| Time | N/A |
|---|---|
| Airport | Gdańsk Lech Wałęsa Airport (EPGD) |
| Time | Latitude | Longitude | Altitude | Speed | Heading |
|---|---|---|---|---|---|
| 2026-04-26 08:51 | 47.45192 | 8.55753 | 1409 ft | 0 kts | 186° |
| 2026-04-26 09:12 | 47.45192 | 8.55754 | 1409 ft | 0 kts | 186° |
| 2026-04-26 09:14 | 47.45192 | 8.55753 | 1409 ft | 0 kts | 186° |
| 2026-04-26 09:14 | 47.45204 | 8.55755 | 1409 ft | 2 kts | 186° |
| 2026-04-26 09:14 | 47.45219 | 8.55757 | 1409 ft | 2 kts | 186° |
| 2026-04-26 09:15 | 47.45233 | 8.55762 | 1409 ft | 2 kts | 207° |
| 2026-04-26 09:15 | 47.45246 | 8.55775 | 1410 ft | 2 kts | 227° |
| 2026-04-26 09:15 | 47.45254 | 8.55792 | 1410 ft | 2 kts | 247° |
| 2026-04-26 09:15 | 47.45258 | 8.55814 | 1410 ft | 2 kts | 267° |
| 2026-04-26 09:16 | 47.45258 | 8.55826 | 1411 ft | 1 kts | 277° |
| 2026-04-26 09:16 | 47.45258 | 8.55829 | 1411 ft | 0 kts | 277° |
| 2026-04-26 09:22 | 47.45258 | 8.55827 | 1411 ft | 1 kts | 277° |
| 2026-04-26 09:23 | 47.45261 | 8.55781 | 1410 ft | 7 kts | 277° |
| 2026-04-26 09:23 | 47.45269 | 8.55691 | 1408 ft | 5 kts | 277° |
| 2026-04-26 09:23 | 47.45274 | 8.55630 | 1408 ft | 7 kts | 278° |
| 2026-04-26 09:23 | 47.45291 | 8.55534 | 1407 ft | 11 kts | 291° |
| 2026-04-26 09:24 | 47.45338 | 8.55420 | 1406 ft | 14 kts | 317° |
| 2026-04-26 09:24 | 47.45436 | 8.55343 | 1405 ft | 17 kts | 336° |
| 2026-04-26 09:24 | 47.45550 | 8.55267 | 1404 ft | 19 kts | 336° |
| 2026-04-26 09:24 | 47.45650 | 8.55226 | 1404 ft | 12 kts | 30° |
| 2026-04-26 09:25 | 47.45674 | 8.55355 | 1405 ft | 14 kts | 95° |
| 2026-04-26 09:25 | 47.45665 | 8.55502 | 1407 ft | 14 kts | 96° |
| 2026-04-26 09:25 | 47.45654 | 8.55651 | 1410 ft | 14 kts | 96° |
| 2026-04-26 09:25 | 47.45643 | 8.55801 | 1412 ft | 14 kts | 97° |
| 2026-04-26 09:26 | 47.45631 | 8.55955 | 1414 ft | 15 kts | 97° |
| 2026-04-26 09:26 | 47.45620 | 8.56107 | 1417 ft | 14 kts | 96° |
| 2026-04-26 09:26 | 47.45609 | 8.56255 | 1420 ft | 14 kts | 96° |
| 2026-04-26 09:26 | 47.45599 | 8.56406 | 1422 ft | 14 kts | 96° |
| 2026-04-26 09:27 | 47.45588 | 8.56559 | 1424 ft | 14 kts | 96° |
| 2026-04-26 09:27 | 47.45577 | 8.56709 | 1427 ft | 14 kts | 97° |
| 2026-04-26 09:27 | 47.45566 | 8.56862 | 1430 ft | 14 kts | 96° |
| 2026-04-26 09:27 | 47.45561 | 8.56958 | 1431 ft | 7 kts | 83° |
| 2026-04-26 09:28 | 47.45602 | 8.57017 | 1431 ft | 10 kts | 11° |
| 2026-04-26 09:28 | 47.45658 | 8.56998 | 1431 ft | 5 kts | 307° |
| 2026-04-26 09:28 | 47.45671 | 8.56932 | 1430 ft | 3 kts | 274° |
| 2026-04-26 09:28 | 47.45671 | 8.56930 | 1430 ft | 0 kts | 275° |
| 2026-04-26 09:29 | 47.45671 | 8.56926 | 1430 ft | 3 kts | 275° |
| 2026-04-26 09:29 | 47.45687 | 8.56685 | 1426 ft | 57 kts | 277° |
| 2026-04-26 09:29 | 47.45759 | 8.55684 | 1410 ft | 135 kts | 276° |
| 2026-04-26 09:29 | 47.45867 | 8.54020 | 1583 ft | 177 kts | 277° |
| 2026-04-26 09:30 | 47.45981 | 8.52202 | 2140 ft | 188 kts | 277° |
| 2026-04-26 09:30 | 47.46087 | 8.50252 | 2950 ft | 194 kts | 276° |
| 2026-04-26 09:30 | 47.46198 | 8.48334 | 3796 ft | 190 kts | 273° |
| 2026-04-26 09:30 | 47.45808 | 8.46391 | 4083 ft | 208 kts | 229° |
| 2026-04-26 09:31 | 47.44609 | 8.45103 | 4372 ft | 225 kts | 212° |
| 2026-04-26 09:31 | 47.43451 | 8.43430 | 4730 ft | 241 kts | 241° |
| 2026-04-26 09:31 | 47.42956 | 8.41016 | 5041 ft | 258 kts | 263° |
| 2026-04-26 09:31 | 47.42648 | 8.38326 | 5450 ft | 272 kts | 257° |
| 2026-04-26 09:32 | 47.41800 | 8.35824 | 5984 ft | 279 kts | 229° |
| 2026-04-26 09:32 | 47.40236 | 8.34159 | 6577 ft | 281 kts | 199° |
| 2026-04-26 09:32 | 47.38338 | 8.33770 | 7202 ft | 280 kts | 172° |
| 2026-04-26 09:32 | 47.36565 | 8.34683 | 7753 ft | 280 kts | 144° |
| 2026-04-26 09:33 | 47.35245 | 8.36751 | 8356 ft | 280 kts | 117° |
| 2026-04-26 09:33 | 47.34732 | 8.39465 | 8932 ft | 281 kts | 90° |
| 2026-04-26 09:33 | 47.35144 | 8.42271 | 9524 ft | 282 kts | 64° |
| 2026-04-26 09:33 | 47.36162 | 8.44706 | 10146 ft | 283 kts | 51° |
| 2026-04-26 09:34 | 47.37507 | 8.46843 | 10563 ft | 293 kts | 41° |
| 2026-04-26 09:34 | 47.39173 | 8.48698 | 10775 ft | 310 kts | 31° |
| 2026-04-26 09:34 | 47.41062 | 8.50408 | 11010 ft | 327 kts | 33° |
| 2026-04-26 09:34 | 47.42918 | 8.52514 | 11263 ft | 342 kts | 41° |
| 2026-04-26 09:35 | 47.44568 | 8.55127 | 11510 ft | 358 kts | 51° |
| 2026-04-26 09:35 | 47.45919 | 8.58264 | 11797 ft | 372 kts | 62° |
| 2026-04-26 09:35 | 47.46863 | 8.61860 | 12303 ft | 380 kts | 73° |
| 2026-04-26 09:35 | 47.47300 | 8.65756 | 12934 ft | 385 kts | 86° |
| 2026-04-26 09:36 | 47.47235 | 8.69705 | 13577 ft | 390 kts | 94° |
| 2026-04-26 09:36 | 47.47087 | 8.73672 | 14259 ft | 395 kts | 92° |
| 2026-04-26 09:36 | 47.47019 | 8.77744 | 14977 ft | 400 kts | 90° |
| 2026-04-26 09:36 | 47.46873 | 8.81892 | 15729 ft | 405 kts | 97° |
| 2026-04-26 09:37 | 47.46321 | 8.85968 | 16475 ft | 410 kts | 102° |
| 2026-04-26 09:37 | 47.45681 | 8.90091 | 17197 ft | 416 kts | 102° |
| 2026-04-26 09:37 | 47.45048 | 8.94290 | 17892 ft | 421 kts | 102° |
| 2026-04-26 09:37 | 47.44427 | 8.98503 | 18594 ft | 426 kts | 102° |
| 2026-04-26 09:38 | 47.43800 | 9.02789 | 19378 ft | 430 kts | 102° |
| 2026-04-26 09:38 | 47.43168 | 9.07110 | 20131 ft | 433 kts | 102° |
| 2026-04-26 09:38 | 47.42525 | 9.11516 | 20830 ft | 438 kts | 102° |
| 2026-04-26 09:38 | 47.41890 | 9.15864 | 21483 ft | 443 kts | 102° |
| 2026-04-26 09:39 | 47.41235 | 9.20352 | 22194 ft | 447 kts | 102° |
| 2026-04-26 09:39 | 47.40753 | 9.24887 | 22840 ft | 451 kts | 94° |
| 2026-04-26 09:39 | 47.40791 | 9.29490 | 23432 ft | 456 kts | 84° |
| 2026-04-26 09:39 | 47.41375 | 9.34082 | 24009 ft | 461 kts | 74° |
| 2026-04-26 09:40 | 47.42444 | 9.38568 | 24634 ft | 464 kts | 65° |
| 2026-04-26 09:40 | 47.43945 | 9.42789 | 25284 ft | 466 kts | 57° |
| 2026-04-26 09:40 | 47.45822 | 9.46623 | 25837 ft | 469 kts | 48° |
| 2026-04-26 09:40 | 47.48101 | 9.50087 | 26385 ft | 472 kts | 40° |
| 2026-04-26 09:41 | 47.50725 | 9.53048 | 26931 ft | 475 kts | 31° |
| 2026-04-26 09:41 | 47.53596 | 9.55393 | 27449 ft | 477 kts | 22° |
| 2026-04-26 09:41 | 47.56731 | 9.57112 | 27995 ft | 479 kts | 14° |
| 2026-04-26 09:41 | 47.59988 | 9.58114 | 28525 ft | 481 kts | 5° |
| 2026-04-26 09:42 | 47.63313 | 9.58387 | 29020 ft | 482 kts | 356° |
| 2026-04-26 09:42 | 47.66646 | 9.57887 | 29517 ft | 483 kts | 347° |
| 2026-04-26 09:42 | 47.69886 | 9.56611 | 30023 ft | 484 kts | 338° |
| 2026-04-26 09:42 | 47.72980 | 9.54586 | 30540 ft | 484 kts | 331° |
| 2026-04-26 09:43 | 47.76043 | 9.52521 | 31234 ft | 485 kts | 336° |
| 2026-04-26 09:43 | 47.79223 | 9.50973 | 32093 ft | 481 kts | 342° |
| 2026-04-26 09:43 | 47.82453 | 9.49812 | 32903 ft | 478 kts | 345° |
| 2026-04-26 09:43 | 47.85698 | 9.48867 | 33566 ft | 478 kts | 348° |
| 2026-04-26 09:44 | 47.88998 | 9.48156 | 34146 ft | 479 kts | 350° |
| 2026-04-26 09:44 | 47.92315 | 9.47634 | 34712 ft | 479 kts | 352° |
| 2026-04-26 09:44 | 47.95642 | 9.47250 | 35241 ft | 479 kts | 354° |
| 2026-04-26 09:44 | 47.98980 | 9.46969 | 35776 ft | 477 kts | 354° |
| 2026-04-26 09:45 | 48.02296 | 9.46763 | 36245 ft | 476 kts | 355° |
| 2026-04-26 09:45 | 48.05591 | 9.46612 | 36691 ft | 475 kts | 355° |
| 2026-04-26 09:45 | 48.08895 | 9.46499 | 37196 ft | 474 kts | 356° |
| 2026-04-26 09:45 | 48.12176 | 9.46412 | 37674 ft | 474 kts | 356° |
| 2026-04-26 09:46 | 48.15486 | 9.46346 | 38100 ft | 474 kts | 356° |
| 2026-04-26 09:46 | 48.18767 | 9.46300 | 38512 ft | 474 kts | 356° |
| 2026-04-26 09:46 | 48.22072 | 9.46272 | 38895 ft | 474 kts | 356° |
| 2026-04-26 09:46 | 48.25356 | 9.46254 | 39222 ft | 473 kts | 357° |
| 2026-04-26 09:47 | 48.28646 | 9.46242 | 39536 ft | 473 kts | 357° |
| 2026-04-26 09:47 | 48.31921 | 9.46234 | 39799 ft | 472 kts | 357° |
| 2026-04-26 09:47 | 48.35189 | 9.46229 | 40067 ft | 472 kts | 357° |
| 2026-04-26 09:47 | 48.38465 | 9.46225 | 40206 ft | 474 kts | 357° |
| 2026-04-26 09:48 | 48.41794 | 9.46223 | 40200 ft | 474 kts | 357° |
| 2026-04-26 09:48 | 48.48331 | 9.46224 | 40205 ft | 472 kts | 357° |
| 2026-04-26 09:49 | 48.54924 | 9.46285 | 40204 ft | 474 kts | 1° |
| 2026-04-26 09:49 | 48.61370 | 9.48328 | 40216 ft | 480 kts | 18° |
| 2026-04-26 09:50 | 48.67254 | 9.53270 | 40215 ft | 486 kts | 36° |
| 2026-04-26 09:50 | 48.71882 | 9.60644 | 40224 ft | 490 kts | 54° |
| 2026-04-26 09:51 | 48.74859 | 9.69885 | 40222 ft | 492 kts | 73° |
| 2026-04-26 09:51 | 48.75849 | 9.80053 | 40224 ft | 496 kts | 91° |
| 2026-04-26 09:52 | 48.74750 | 9.90249 | 40225 ft | 494 kts | 109° |
| 2026-04-26 09:52 | 48.71669 | 9.99424 | 40224 ft | 490 kts | 128° |
| 2026-04-26 09:52 | 48.69469 | 10.03364 | 40223 ft | 487 kts | 137° |
| 2026-04-26 09:53 | 48.64083 | 10.09426 | 40235 ft | 482 kts | 155° |
| 2026-04-26 09:53 | 48.57835 | 10.12742 | 40227 ft | 475 kts | 172° |
| 2026-04-26 09:54 | 48.51281 | 10.13544 | 40233 ft | 472 kts | 180° |
| 2026-04-26 09:54 | 48.44725 | 10.13947 | 40234 ft | 472 kts | 180° |
| 2026-04-26 09:55 | 48.38185 | 10.15211 | 40235 ft | 477 kts | 166° |
| 2026-04-26 09:55 | 48.32196 | 10.19352 | 40232 ft | 483 kts | 148° |
| 2026-04-26 09:56 | 48.27240 | 10.26214 | 40237 ft | 488 kts | 129° |
| 2026-04-26 09:56 | 48.23881 | 10.35077 | 40243 ft | 493 kts | 111° |
| 2026-04-26 09:57 | 48.22463 | 10.45047 | 40235 ft | 494 kts | 92° |
| 2026-04-26 09:57 | 48.23126 | 10.55219 | 40236 ft | 494 kts | 74° |
| 2026-04-26 09:58 | 48.25641 | 10.64189 | 40239 ft | 490 kts | 56° |
| 2026-04-26 09:58 | 48.29989 | 10.71973 | 40244 ft | 487 kts | 39° |
| 2026-04-26 09:59 | 48.35629 | 10.77385 | 40245 ft | 481 kts | 21° |
| 2026-04-26 09:59 | 48.41990 | 10.80005 | 40245 ft | 475 kts | 4° |
| 2026-04-26 10:00 | 48.48546 | 10.80162 | 40250 ft | 471 kts | 356° |
| 2026-04-26 10:00 | 48.55097 | 10.79970 | 40247 ft | 470 kts | 356° |
| 2026-04-26 10:01 | 48.61649 | 10.79777 | 40238 ft | 470 kts | 356° |
| 2026-04-26 10:01 | 48.68185 | 10.79583 | 40234 ft | 469 kts | 356° |
| 2026-04-26 10:02 | 48.74750 | 10.79388 | 40224 ft | 470 kts | 356° |
| 2026-04-26 10:02 | 48.81290 | 10.79193 | 40219 ft | 471 kts | 356° |
| 2026-04-26 10:03 | 48.87849 | 10.78998 | 40214 ft | 471 kts | 356° |
| 2026-04-26 10:03 | 48.94396 | 10.78801 | 40214 ft | 471 kts | 356° |
| 2026-04-26 10:04 | 49.00917 | 10.78606 | 40206 ft | 470 kts | 356° |
| 2026-04-26 10:04 | 49.07440 | 10.78410 | 40212 ft | 469 kts | 356° |
| 2026-04-26 10:05 | 49.13949 | 10.78214 | 40220 ft | 469 kts | 356° |
| 2026-04-26 10:05 | 49.20473 | 10.78017 | 40229 ft | 469 kts | 356° |
| 2026-04-26 10:06 | 49.27000 | 10.77818 | 40236 ft | 470 kts | 356° |
| 2026-04-26 10:06 | 49.33476 | 10.77622 | 40239 ft | 471 kts | 356° |
| 2026-04-26 10:07 | 49.40026 | 10.77422 | 40245 ft | 471 kts | 356° |
| 2026-04-26 10:07 | 49.46568 | 10.77222 | 40243 ft | 470 kts | 356° |
| 2026-04-26 10:08 | 49.53144 | 10.77021 | 40245 ft | 470 kts | 356° |
| 2026-04-26 10:08 | 49.59616 | 10.76822 | 40242 ft | 469 kts | 356° |
| 2026-04-26 10:09 | 49.66169 | 10.76620 | 40243 ft | 469 kts | 356° |
| 2026-04-26 10:09 | 49.72699 | 10.76418 | 40242 ft | 469 kts | 356° |
| 2026-04-26 10:10 | 49.79228 | 10.76216 | 40247 ft | 470 kts | 356° |
| 2026-04-26 10:10 | 49.85809 | 10.76012 | 40248 ft | 469 kts | 356° |
| 2026-04-26 10:11 | 49.92314 | 10.75809 | 40247 ft | 469 kts | 356° |
| 2026-04-26 10:11 | 49.98843 | 10.75605 | 40240 ft | 469 kts | 356° |
| 2026-04-26 10:12 | 50.05380 | 10.75400 | 40252 ft | 469 kts | 356° |
| 2026-04-26 10:12 | 50.11886 | 10.75196 | 40250 ft | 468 kts | 356° |
| 2026-04-26 10:13 | 50.18406 | 10.74991 | 40274 ft | 470 kts | 356° |
| 2026-04-26 10:13 | 50.24880 | 10.74787 | 40273 ft | 468 kts | 356° |
| 2026-04-26 10:14 | 50.31387 | 10.74581 | 40270 ft | 469 kts | 356° |
| 2026-04-26 10:14 | 50.37928 | 10.74373 | 40262 ft | 467 kts | 356° |
| 2026-04-26 10:15 | 50.44399 | 10.74167 | 40263 ft | 467 kts | 356° |
| 2026-04-26 10:15 | 50.50901 | 10.73960 | 40263 ft | 467 kts | 356° |
| 2026-04-26 10:16 | 50.57367 | 10.73753 | 40266 ft | 467 kts | 357° |
| 2026-04-26 10:16 | 50.63864 | 10.73545 | 40250 ft | 466 kts | 357° |
| 2026-04-26 10:17 | 50.70320 | 10.73337 | 40258 ft | 467 kts | 357° |
| 2026-04-26 10:17 | 50.76795 | 10.73893 | 40249 ft | 469 kts | 9° |
| 2026-04-26 10:18 | 50.82968 | 10.77300 | 40256 ft | 474 kts | 26° |
| 2026-04-26 10:18 | 50.88328 | 10.83402 | 40298 ft | 477 kts | 39° |
| 2026-04-26 10:19 | 50.93312 | 10.90360 | 40303 ft | 477 kts | 40° |
| 2026-04-26 10:19 | 50.98277 | 10.97310 | 40317 ft | 476 kts | 40° |
| 2026-04-26 10:20 | 51.02406 | 11.03099 | 40317 ft | 476 kts | 39° |
| 2026-04-26 10:20 | 51.08203 | 11.11245 | 40318 ft | 476 kts | 39° |
| 2026-04-26 10:21 | 51.13152 | 11.18217 | 40314 ft | 477 kts | 39° |
| 2026-04-26 10:21 | 51.18126 | 11.25245 | 40308 ft | 478 kts | 39° |
| 2026-04-26 10:22 | 51.23062 | 11.32239 | 40315 ft | 478 kts | 39° |
| 2026-04-26 10:22 | 51.28044 | 11.39320 | 40315 ft | 477 kts | 39° |
| 2026-04-26 10:23 | 51.33002 | 11.46387 | 40317 ft | 477 kts | 39° |
| 2026-04-26 10:23 | 51.37943 | 11.53451 | 40317 ft | 478 kts | 39° |
| 2026-04-26 10:24 | 51.42868 | 11.60512 | 40315 ft | 477 kts | 39° |
| 2026-04-26 10:24 | 51.47819 | 11.67635 | 40313 ft | 477 kts | 39° |
| 2026-04-26 10:25 | 51.52719 | 11.74703 | 40316 ft | 477 kts | 39° |
| 2026-04-26 10:25 | 51.57661 | 11.81855 | 40317 ft | 477 kts | 39° |
| 2026-04-26 10:26 | 51.62585 | 11.89001 | 40317 ft | 479 kts | 39° |
| 2026-04-26 10:26 | 51.67521 | 11.96188 | 40326 ft | 478 kts | 39° |
| 2026-04-26 10:27 | 51.72460 | 12.03401 | 40313 ft | 479 kts | 39° |
| 2026-04-26 10:27 | 51.77366 | 12.10587 | 40301 ft | 479 kts | 39° |
| 2026-04-26 10:28 | 51.82291 | 12.17825 | 40300 ft | 478 kts | 39° |
| 2026-04-26 10:28 | 51.86808 | 12.25814 | 40290 ft | 482 kts | 46° |
| 2026-04-26 10:29 | 51.91133 | 12.34074 | 40290 ft | 482 kts | 46° |
| 2026-04-26 10:29 | 51.95468 | 12.42387 | 40297 ft | 482 kts | 46° |
| 2026-04-26 10:30 | 51.99792 | 12.50706 | 40294 ft | 482 kts | 46° |
| 2026-04-26 10:30 | 52.04103 | 12.59027 | 40295 ft | 482 kts | 45° |
| 2026-04-26 10:31 | 52.08430 | 12.67409 | 40291 ft | 481 kts | 46° |
| 2026-04-26 10:31 | 52.12682 | 12.75672 | 40302 ft | 480 kts | 46° |
| 2026-04-26 10:32 | 52.16939 | 12.83971 | 40285 ft | 480 kts | 46° |
| 2026-04-26 10:32 | 52.21214 | 12.92335 | 40304 ft | 479 kts | 46° |
| 2026-04-26 10:33 | 52.25468 | 13.00684 | 40302 ft | 479 kts | 46° |
| 2026-04-26 10:33 | 52.29728 | 13.09070 | 40300 ft | 479 kts | 46° |
| 2026-04-26 10:34 | 52.33977 | 13.17467 | 40298 ft | 478 kts | 45° |
| 2026-04-26 10:34 | 52.38215 | 13.25868 | 40294 ft | 478 kts | 45° |
| 2026-04-26 10:35 | 52.42464 | 13.34317 | 40295 ft | 478 kts | 45° |
| 2026-04-26 10:35 | 52.46704 | 13.42778 | 40293 ft | 477 kts | 45° |
| 2026-04-26 10:36 | 52.50926 | 13.51232 | 40292 ft | 477 kts | 45° |
| 2026-04-26 10:36 | 52.55129 | 13.59676 | 40293 ft | 475 kts | 45° |
| 2026-04-26 10:37 | 52.59304 | 13.68091 | 40286 ft | 477 kts | 46° |
| 2026-04-26 10:37 | 52.63469 | 13.76513 | 40282 ft | 476 kts | 45° |
| 2026-04-26 10:38 | 52.67659 | 13.85014 | 40279 ft | 478 kts | 45° |
| 2026-04-26 10:38 | 52.71837 | 13.93523 | 40287 ft | 477 kts | 45° |
| 2026-04-26 10:39 | 52.76003 | 14.02033 | 40279 ft | 477 kts | 45° |
| 2026-04-26 10:39 | 52.80178 | 14.10591 | 40271 ft | 476 kts | 45° |
| 2026-04-26 10:40 | 52.84316 | 14.19102 | 40282 ft | 475 kts | 45° |